createdAt,value
2022-10-13T00:00:52.214Z,73.79
2022-10-13T00:01:52.122Z,73.94
2022-10-13T00:02:52.101Z,73.54
2022-10-13T00:03:52.076Z,73.49
2022-10-13T00:04:52.065Z,73.52
2022-10-13T00:05:52.080Z,73.60
2022-10-13T00:06:52.054Z,73.57
2022-10-13T00:07:52.023Z,73.73
2022-10-13T00:08:52.028Z,73.93
2022-10-13T00:09:51.996Z,73.58
2022-10-13T00:10:52.030Z,73.70
2022-10-13T00:11:51.988Z,73.75
2022-10-13T00:12:51.959Z,73.75
2022-10-13T00:13:51.944Z,73.70
2022-10-13T00:14:51.936Z,74.03
2022-10-13T00:15:51.937Z,74.54
2022-10-13T00:16:51.900Z,74.86
2022-10-13T00:17:51.896Z,74.94
2022-10-13T00:18:51.878Z,74.90
2022-10-13T00:19:51.882Z,74.80
2022-10-13T00:20:51.897Z,74.91
2022-10-13T00:21:51.832Z,75.24
2022-10-13T00:22:51.815Z,75.34
2022-10-13T00:23:51.839Z,75.35
2022-10-13T00:24:51.789Z,75.42
2022-10-13T00:25:51.796Z,75.38
2022-10-13T00:26:51.779Z,75.50
2022-10-13T00:27:51.753Z,75.49
2022-10-13T00:28:53.082Z,75.70
2022-10-13T00:29:51.732Z,75.91
2022-10-13T00:30:51.712Z,75.90
2022-10-13T00:31:51.703Z,75.80
2022-10-13T00:32:51.730Z,75.85
2022-10-13T00:33:51.688Z,75.81
2022-10-13T00:34:51.661Z,75.54
2022-10-13T00:35:51.654Z,75.40
2022-10-13T00:36:51.635Z,75.02
2022-10-13T00:37:51.658Z,75.19
2022-10-13T00:38:51.910Z,75.12
2022-10-13T00:39:51.624Z,74.94
2022-10-13T00:40:51.589Z,74.39
2022-10-13T00:41:51.589Z,74.18
2022-10-13T00:42:51.556Z,74.34
2022-10-13T00:43:51.565Z,74.70
2022-10-13T00:44:51.538Z,75.27
2022-10-13T00:45:51.529Z,75.85
2022-10-13T00:46:51.529Z,76.45
2022-10-13T00:47:51.501Z,76.50
2022-10-13T00:48:51.481Z,76.65
2022-10-13T00:49:51.470Z,76.70
2022-10-13T00:50:51.458Z,76.89
2022-10-13T00:51:51.462Z,77.03
2022-10-13T00:52:51.453Z,76.97
2022-10-13T00:53:51.420Z,77.06
2022-10-13T00:54:51.404Z,76.89
2022-10-13T00:55:51.394Z,77.10
2022-10-13T00:56:51.385Z,76.99
2022-10-13T00:57:51.390Z,77.14
2022-10-13T00:58:51.347Z,77.13
2022-10-13T00:59:51.340Z,77.38
2022-10-13T01:00:51.363Z,77.35
2022-10-13T01:01:51.321Z,77.01
2022-10-13T01:02:51.323Z,76.62
2022-10-13T01:03:51.328Z,76.40
2022-10-13T01:04:51.272Z,76.38
2022-10-13T01:05:51.271Z,76.63
2022-10-13T01:06:51.254Z,76.65
2022-10-13T01:07:51.248Z,76.92
2022-10-13T01:08:51.230Z,76.96
2022-10-13T01:09:51.237Z,76.85
2022-10-13T01:10:51.214Z,76.88
2022-10-13T01:11:51.203Z,76.89
2022-10-13T01:12:51.204Z,76.82
2022-10-13T01:13:51.161Z,76.71
2022-10-13T01:14:51.142Z,76.96
2022-10-13T01:15:51.161Z,77.23
2022-10-13T01:16:51.119Z,77.28
2022-10-13T01:17:51.105Z,77.48
2022-10-13T01:18:51.108Z,77.37
2022-10-13T01:19:51.077Z,77.24
2022-10-13T01:20:51.060Z,77.01
2022-10-13T01:21:51.070Z,76.92
2022-10-13T01:22:51.055Z,76.68
2022-10-13T01:23:51.022Z,76.49
2022-10-13T01:24:51.049Z,76.44
2022-10-13T01:25:51.013Z,76.40
2022-10-13T01:26:50.981Z,76.55
2022-10-13T01:27:50.982Z,76.70
2022-10-13T01:28:51.019Z,76.63
2022-10-13T01:29:50.957Z,76.71
2022-10-13T01:30:50.938Z,76.81
2022-10-13T01:31:50.919Z,76.75
2022-10-13T01:32:50.906Z,76.43
2022-10-13T01:33:50.883Z,76.40
2022-10-13T01:34:50.891Z,76.09
2022-10-13T01:35:50.855Z,76.06
2022-10-13T01:36:50.857Z,76.20
2022-10-13T01:37:50.859Z,75.81
2022-10-13T01:38:50.837Z,75.92
2022-10-13T01:39:50.805Z,75.99
2022-10-13T01:40:50.800Z,75.75
2022-10-13T01:41:50.793Z,75.72
2022-10-13T01:42:50.760Z,75.63
2022-10-13T01:43:50.775Z,75.49
2022-10-13T01:44:50.733Z,75.39
2022-10-13T01:45:50.724Z,75.24
2022-10-13T01:46:50.714Z,75.06
2022-10-13T01:47:50.752Z,75.14
2022-10-13T01:48:50.697Z,74.76
2022-10-13T01:49:50.695Z,74.94
2022-10-13T01:50:50.653Z,74.91
2022-10-13T01:51:50.658Z,74.72
2022-10-13T01:52:50.627Z,74.78
2022-10-13T01:53:50.613Z,74.79
2022-10-13T01:54:50.620Z,75.07
2022-10-13T01:55:50.593Z,74.85
2022-10-13T01:56:50.567Z,74.69
2022-10-13T01:57:50.588Z,74.78
2022-10-13T01:58:50.550Z,74.52
2022-10-13T01:59:50.529Z,74.32
2022-10-13T02:00:50.548Z,74.22
2022-10-13T02:01:50.507Z,74.40
2022-10-13T02:02:50.511Z,74.55
2022-10-13T02:03:50.490Z,74.44
2022-10-13T02:04:50.462Z,74.37
2022-10-13T02:05:50.461Z,74.51
2022-10-13T02:06:50.447Z,74.38
2022-10-13T02:07:50.430Z,74.29
2022-10-13T02:08:50.422Z,74.25
2022-10-13T02:09:50.399Z,74.45
2022-10-13T02:10:50.383Z,74.31
2022-10-13T02:11:50.407Z,74.36
2022-10-13T02:12:50.361Z,74.40
2022-10-13T02:13:50.354Z,74.78
2022-10-13T02:14:50.344Z,74.98
2022-10-13T02:15:50.321Z,75.00
2022-10-13T02:16:50.336Z,74.63
2022-10-13T02:17:50.314Z,74.63
2022-10-13T02:18:50.277Z,74.49
2022-10-13T02:19:50.263Z,74.56
2022-10-13T02:20:50.243Z,74.30
2022-10-13T02:21:50.248Z,73.93
2022-10-13T02:22:50.216Z,73.88
2022-10-13T02:23:50.225Z,74.26
2022-10-13T02:24:50.194Z,74.27
2022-10-13T02:25:50.182Z,74.41
2022-10-13T02:26:50.174Z,74.49
2022-10-13T02:27:50.155Z,74.37
2022-10-13T02:28:50.179Z,74.24
2022-10-13T02:29:50.126Z,74.27
2022-10-13T02:30:50.112Z,74.30
2022-10-13T02:31:50.116Z,74.02
2022-10-13T02:32:50.094Z,74.15
2022-10-13T02:33:50.080Z,73.99
2022-10-13T02:34:50.060Z,73.99
2022-10-13T02:35:50.052Z,73.88
2022-10-13T02:36:50.040Z,74.07
2022-10-13T02:37:50.013Z,73.93
2022-10-13T02:38:50.003Z,73.65
2022-10-13T02:39:49.990Z,74.04
2022-10-13T02:40:49.982Z,74.20
2022-10-13T02:41:49.994Z,74.19
2022-10-13T02:42:49.949Z,74.03
2022-10-13T02:43:49.951Z,73.78
2022-10-13T02:44:49.922Z,73.96
2022-10-13T02:45:49.919Z,74.07
2022-10-13T02:46:49.894Z,73.66
2022-10-13T02:47:49.896Z,73.45
2022-10-13T02:48:49.878Z,73.90
2022-10-13T02:50:46.129Z,74.44
2022-10-13T02:51:47.048Z,74.78
2022-10-13T02:52:47.033Z,75.03
2022-10-13T02:53:47.009Z,75.12
2022-10-13T02:54:47.014Z,75.29
2022-10-13T02:55:46.979Z,75.63
2022-10-13T02:56:47.000Z,75.63
2022-10-13T02:57:46.982Z,75.47
2022-10-13T02:58:46.938Z,75.32
2022-10-13T02:59:46.924Z,75.80
2022-10-13T03:00:46.923Z,76.78
2022-10-13T03:01:46.909Z,77.38
2022-10-13T03:02:46.914Z,77.37
2022-10-13T03:03:46.878Z,77.19
2022-10-13T03:04:46.868Z,77.39
2022-10-13T03:05:46.854Z,77.27
2022-10-13T03:06:46.836Z,77.21
2022-10-13T03:07:46.868Z,77.71
2022-10-13T03:08:46.824Z,78.25
2022-10-13T03:09:46.802Z,78.51
2022-10-13T03:10:46.812Z,78.75
2022-10-13T03:11:46.824Z,78.78
2022-10-13T03:12:46.769Z,78.80
2022-10-13T03:13:46.776Z,79.34
2022-10-13T03:14:46.761Z,79.79
2022-10-13T03:15:46.730Z,80.13
2022-10-13T03:16:46.727Z,79.92
2022-10-13T03:17:46.736Z,80.52
2022-10-13T03:18:46.690Z,80.75
2022-10-13T03:19:46.697Z,80.92
2022-10-13T03:20:46.677Z,81.12
2022-10-13T03:21:46.655Z,81.26
2022-10-13T03:22:49.724Z,81.20
2022-10-13T03:23:46.635Z,81.18
2022-10-13T03:24:46.641Z,81.10
2022-10-13T03:25:46.609Z,81.00
2022-10-13T03:26:46.603Z,80.80
2022-10-13T03:27:46.596Z,80.63
2022-10-13T03:28:46.593Z,80.47
2022-10-13T03:29:46.583Z,80.43
2022-10-13T03:30:46.548Z,80.14
2022-10-13T03:31:46.553Z,80.20
2022-10-13T03:32:46.601Z,80.02
2022-10-13T03:33:46.529Z,79.90
2022-10-13T03:34:46.519Z,79.73
2022-10-13T03:35:46.530Z,79.64
2022-10-13T03:36:46.475Z,79.59
2022-10-13T03:37:46.488Z,79.00
2022-10-13T03:38:46.458Z,78.67
2022-10-13T03:39:46.460Z,78.62
2022-10-13T03:40:46.442Z,78.39
2022-10-13T03:41:46.415Z,78.32
2022-10-13T03:42:46.399Z,78.37
2022-10-13T03:43:46.410Z,78.63
2022-10-13T03:44:46.378Z,79.10
2022-10-13T03:45:46.396Z,79.50
2022-10-13T03:46:46.353Z,79.86
2022-10-13T03:47:46.395Z,80.28
2022-10-13T03:48:46.337Z,80.36
2022-10-13T03:49:46.317Z,80.41
2022-10-13T03:50:46.327Z,80.34
2022-10-13T03:51:46.346Z,80.51
2022-10-13T03:52:46.280Z,80.74
2022-10-13T03:53:46.307Z,80.99
2022-10-13T03:54:46.287Z,81.08
2022-10-13T03:55:46.244Z,81.22
2022-10-13T03:56:46.248Z,81.44
2022-10-13T03:57:46.221Z,81.73
2022-10-13T03:58:46.209Z,81.87
2022-10-13T03:59:46.206Z,81.91
2022-10-13T04:00:46.214Z,81.70
2022-10-13T04:01:46.215Z,81.45
2022-10-13T04:02:46.228Z,80.96
2022-10-13T04:03:46.165Z,80.75
2022-10-13T04:04:46.145Z,80.64
2022-10-13T04:05:46.160Z,80.84
2022-10-13T04:06:46.110Z,80.81
2022-10-13T04:07:46.106Z,80.90
2022-10-13T04:08:46.106Z,80.86
2022-10-13T04:09:46.083Z,80.98
2022-10-13T04:10:46.067Z,81.20
2022-10-13T04:11:46.054Z,81.37
2022-10-13T04:12:46.038Z,81.42
2022-10-13T04:13:46.033Z,81.45
2022-10-13T04:14:46.072Z,81.46
2022-10-13T04:15:46.027Z,81.32
2022-10-13T04:16:46.003Z,81.37
2022-10-13T04:17:46.040Z,81.40
2022-10-13T04:18:45.965Z,81.43
2022-10-13T04:19:45.963Z,81.43
2022-10-13T04:20:45.975Z,81.50
2022-10-13T04:21:45.933Z,81.43
2022-10-13T04:22:45.938Z,81.17
2022-10-13T04:23:45.909Z,81.09
2022-10-13T04:24:45.909Z,81.02
2022-10-13T04:25:45.884Z,80.77
2022-10-13T04:26:45.879Z,80.69
2022-10-13T04:27:45.860Z,80.72
2022-10-13T04:28:45.885Z,80.82
2022-10-13T04:29:45.846Z,81.08
2022-10-13T04:30:49.290Z,81.13
2022-10-13T04:31:45.842Z,81.20
2022-10-13T04:32:45.793Z,81.25
2022-10-13T04:33:45.807Z,81.44
2022-10-13T04:34:45.775Z,81.59
2022-10-13T04:35:45.761Z,81.64
2022-10-13T04:36:45.771Z,81.71
2022-10-13T04:37:45.735Z,81.61
2022-10-13T04:38:45.717Z,81.08
2022-10-13T04:39:45.716Z,81.20
2022-10-13T04:40:45.758Z,81.22
2022-10-13T04:41:45.695Z,81.14
2022-10-13T04:42:45.673Z,81.40
2022-10-13T04:43:45.687Z,81.42
2022-10-13T04:44:45.671Z,81.56
2022-10-13T04:45:45.634Z,81.64
2022-10-13T04:46:45.622Z,81.60
2022-10-13T04:47:45.641Z,81.68
2022-10-13T04:48:45.596Z,81.63
2022-10-13T04:49:45.627Z,81.55
2022-10-13T04:50:45.577Z,81.63
2022-10-13T04:51:45.562Z,81.78
2022-10-13T04:52:45.567Z,81.88
2022-10-13T04:53:45.555Z,81.89
2022-10-13T04:54:45.534Z,81.76
2022-10-13T04:55:45.545Z,81.76
2022-10-13T04:56:45.499Z,81.61
2022-10-13T04:57:45.547Z,81.65
2022-10-13T04:58:45.501Z,81.80
2022-10-13T04:59:45.478Z,81.99
2022-10-13T05:00:45.504Z,81.94
2022-10-13T05:01:45.451Z,81.95
2022-10-13T05:02:45.425Z,81.94
2022-10-13T05:03:45.414Z,81.86
2022-10-13T05:04:45.411Z,81.77
2022-10-13T05:05:45.396Z,81.85
2022-10-13T05:07:12.697Z,81.92
2022-10-13T05:07:45.476Z,81.98
2022-10-13T05:08:45.358Z,81.94
2022-10-13T05:09:45.356Z,81.95
2022-10-13T05:10:45.326Z,81.97
2022-10-13T05:11:45.370Z,81.98
2022-10-13T05:12:45.326Z,81.98
2022-10-13T05:13:45.328Z,81.95
2022-10-13T05:14:45.277Z,81.99
2022-10-13T05:15:45.298Z,82.02
2022-10-13T05:16:45.253Z,81.93
2022-10-13T05:17:45.236Z,81.83
2022-10-13T05:18:45.229Z,81.75
2022-10-13T05:19:45.251Z,81.75
2022-10-13T05:20:45.219Z,81.73
2022-10-13T05:21:45.192Z,81.60
2022-10-13T05:22:45.187Z,81.47
2022-10-13T05:23:45.166Z,81.36
2022-10-13T05:24:45.183Z,81.38
2022-10-13T05:25:45.179Z,81.36
2022-10-13T05:26:45.150Z,81.29
2022-10-13T05:27:45.185Z,81.21
2022-10-13T05:28:45.272Z,81.24
2022-10-13T05:29:45.157Z,81.22
2022-10-13T05:30:45.082Z,81.17
2022-10-13T05:31:45.073Z,81.14
2022-10-13T05:32:45.135Z,81.04
2022-10-13T05:33:45.180Z,80.97
2022-10-13T05:34:45.181Z,80.90
2022-10-13T05:35:45.038Z,80.89
2022-10-13T05:36:45.027Z,80.81
2022-10-13T05:37:44.987Z,80.60
2022-10-13T05:38:44.982Z,80.65
2022-10-13T05:39:48.650Z,80.68
2022-10-13T05:40:44.986Z,80.70
2022-10-13T05:41:44.922Z,80.64
2022-10-13T05:42:44.978Z,80.58
2022-10-13T05:43:44.950Z,80.55
2022-10-13T05:44:44.924Z,80.51
2022-10-13T05:45:44.883Z,80.49
2022-10-13T05:46:44.862Z,80.49
2022-10-13T05:47:44.870Z,80.52
2022-10-13T05:48:44.842Z,80.41
2022-10-13T05:49:44.821Z,80.51
2022-10-13T05:50:44.843Z,80.44
2022-10-13T05:51:44.808Z,80.51
2022-10-13T05:52:44.779Z,80.42
2022-10-13T05:53:49.579Z,80.37
2022-10-13T05:54:44.768Z,80.29
2022-10-13T05:55:44.755Z,80.42
2022-10-13T05:56:44.733Z,80.48
2022-10-13T05:57:44.740Z,80.56
2022-10-13T05:58:44.722Z,80.64
2022-10-13T05:59:44.701Z,80.66
2022-10-13T06:00:44.680Z,80.73
2022-10-13T06:01:44.704Z,80.46
2022-10-13T06:02:44.711Z,80.52
2022-10-13T06:03:44.693Z,80.66
2022-10-13T06:04:44.629Z,80.78
2022-10-13T06:05:44.631Z,80.71
2022-10-13T06:06:44.655Z,80.63
2022-10-13T06:07:44.597Z,80.57
2022-10-13T06:08:44.593Z,80.60
2022-10-13T06:09:44.595Z,80.74
2022-10-13T06:10:44.568Z,80.92
2022-10-13T06:11:44.556Z,80.99
2022-10-13T06:12:44.581Z,81.12
2022-10-13T06:13:44.509Z,81.15
2022-10-13T06:14:44.505Z,81.18
2022-10-13T06:15:44.566Z,81.28
2022-10-13T06:16:44.678Z,81.35
2022-10-13T06:17:44.868Z,81.41
2022-10-13T06:18:44.464Z,81.46
2022-10-13T06:19:44.464Z,81.46
2022-10-13T06:20:45.700Z,81.50
2022-10-13T06:21:46.219Z,81.59
2022-10-13T06:22:47.884Z,81.71
2022-10-13T06:23:44.760Z,81.78
2022-10-13T06:24:45.948Z,81.88
2022-10-13T06:25:45.156Z,82.06
2022-10-13T06:26:44.426Z,82.13
2022-10-13T06:27:47.540Z,82.18
2022-10-13T06:28:49.117Z,82.06
2022-10-13T06:29:48.281Z,82.11
2022-10-13T06:30:44.434Z,82.16
2022-10-13T06:31:45.103Z,82.27
2022-10-13T06:32:44.504Z,82.31
2022-10-13T06:33:44.460Z,82.46
2022-10-13T06:34:44.665Z,82.49
2022-10-13T06:35:44.286Z,82.55
2022-10-13T06:36:44.786Z,82.60
2022-10-13T06:37:44.229Z,82.67
2022-10-13T06:38:44.230Z,82.76
2022-10-13T06:39:44.196Z,82.88
2022-10-13T06:40:44.226Z,82.93
2022-10-13T06:41:44.177Z,82.94
2022-10-13T06:42:44.128Z,83.00
2022-10-13T06:43:44.208Z,83.07
2022-10-13T06:44:44.241Z,83.11
2022-10-13T06:45:44.683Z,83.25
2022-10-13T06:46:44.790Z,83.28
2022-10-13T06:47:44.192Z,83.36
2022-10-13T06:48:44.101Z,83.45
2022-10-13T06:49:44.108Z,83.63
2022-10-13T06:50:44.070Z,83.66
2022-10-13T06:51:44.011Z,83.84
2022-10-13T06:52:43.995Z,83.95
2022-10-13T06:53:44.000Z,83.99
2022-10-13T06:54:43.993Z,83.98
2022-10-13T06:55:44.000Z,84.04
2022-10-13T06:56:43.950Z,84.15
2022-10-13T06:57:43.974Z,84.18
2022-10-13T06:58:43.947Z,84.22
2022-10-13T06:59:43.910Z,84.29
2022-10-13T07:00:43.941Z,84.37
2022-10-13T07:01:43.946Z,84.30
2022-10-13T07:02:43.925Z,84.32
2022-10-13T07:03:43.877Z,84.28
2022-10-13T07:04:44.724Z,84.20
2022-10-13T07:05:43.877Z,84.21
2022-10-13T07:06:44.050Z,84.20
2022-10-13T07:07:44.738Z,84.21
2022-10-13T07:08:43.825Z,84.24
2022-10-13T07:09:43.805Z,84.33
2022-10-13T07:10:44.043Z,84.33
2022-10-13T07:11:43.829Z,84.31
2022-10-13T07:12:43.761Z,84.35
2022-10-13T07:13:46.415Z,84.35
2022-10-13T07:14:44.017Z,84.32
2022-10-13T07:15:43.775Z,84.32
2022-10-13T07:16:43.704Z,84.34
2022-10-13T07:17:43.698Z,84.35
2022-10-13T07:18:43.738Z,84.38
2022-10-13T07:19:43.703Z,84.19
2022-10-13T07:20:43.665Z,84.22
2022-10-13T07:21:43.644Z,84.27
2022-10-13T07:22:43.610Z,84.34
2022-10-13T07:23:43.595Z,84.37
2022-10-13T07:24:43.630Z,84.41
2022-10-13T07:25:43.587Z,84.37
2022-10-13T07:26:43.559Z,84.46
2022-10-13T07:27:43.550Z,84.39
2022-10-13T07:28:43.592Z,84.38
2022-10-13T07:29:43.559Z,84.32
2022-10-13T07:30:43.972Z,84.35
2022-10-13T07:31:43.812Z,84.40
2022-10-13T07:32:43.547Z,84.49
2022-10-13T07:33:43.476Z,84.44
2022-10-13T07:34:43.561Z,84.41
2022-10-13T07:35:43.590Z,84.39
2022-10-13T07:36:43.484Z,84.30
2022-10-13T07:37:43.553Z,84.28
2022-10-13T07:38:43.430Z,84.29
2022-10-13T07:39:43.549Z,84.23
2022-10-13T07:40:43.413Z,84.34
2022-10-13T07:41:47.519Z,84.41
2022-10-13T07:42:43.465Z,84.34
2022-10-13T07:43:43.406Z,84.29
2022-10-13T07:44:43.586Z,84.35
2022-10-13T07:45:43.334Z,84.37
2022-10-13T07:46:43.401Z,84.35
2022-10-13T07:47:43.311Z,84.42
2022-10-13T07:48:43.426Z,84.35
2022-10-13T07:49:43.268Z,84.26
2022-10-13T07:50:43.284Z,84.34
2022-10-13T07:51:43.698Z,84.44
2022-10-13T07:52:43.281Z,84.45
2022-10-13T07:53:43.540Z,84.30
2022-10-13T07:54:43.381Z,84.38
2022-10-13T07:55:44.319Z,84.43
2022-10-13T07:56:43.455Z,84.46
2022-10-13T07:57:43.334Z,84.32
2022-10-13T07:58:43.330Z,84.26
2022-10-13T07:59:43.180Z,84.17
2022-10-13T08:00:43.131Z,84.08
2022-10-13T08:01:43.155Z,84.10
2022-10-13T08:02:43.107Z,84.15
2022-10-13T08:03:45.759Z,84.27
2022-10-13T08:04:43.078Z,84.29
2022-10-13T08:05:43.041Z,84.20
2022-10-13T08:06:43.046Z,84.22
2022-10-13T08:07:43.046Z,84.15
2022-10-13T08:08:43.063Z,83.79
2022-10-13T08:09:43.010Z,83.73
2022-10-13T08:10:43.032Z,83.73
2022-10-13T08:11:42.998Z,83.78
2022-10-13T08:12:42.963Z,83.74
2022-10-13T08:13:42.941Z,83.78
2022-10-13T08:14:43.089Z,83.83
2022-10-13T08:15:42.924Z,83.85
2022-10-13T08:16:42.899Z,83.67
2022-10-13T08:17:42.903Z,83.75
2022-10-13T08:18:42.897Z,83.84
2022-10-13T08:19:42.855Z,83.74
2022-10-13T08:20:43.806Z,83.77
2022-10-13T08:21:59.474Z,83.80
2022-10-13T08:22:42.868Z,83.59
2022-10-13T08:23:42.814Z,83.66
2022-10-13T08:24:42.801Z,83.73
2022-10-13T08:25:42.802Z,83.78
2022-10-13T08:26:42.799Z,83.72
2022-10-13T08:27:50.925Z,83.62
2022-10-13T08:28:48.689Z,83.72
2022-10-13T08:29:42.859Z,83.85
2022-10-13T08:30:42.859Z,83.90
2022-10-13T08:31:43.064Z,83.97
2022-10-13T08:32:42.711Z,84.03
2022-10-13T08:33:42.694Z,84.11
2022-10-13T08:34:43.666Z,84.22
2022-10-13T08:35:43.138Z,84.19
2022-10-13T08:36:43.291Z,84.17
2022-10-13T08:37:44.675Z,84.04
2022-10-13T08:38:42.631Z,84.09
2022-10-13T08:39:42.878Z,84.15
2022-10-13T08:40:42.596Z,84.19
2022-10-13T08:41:42.982Z,84.24
2022-10-13T08:42:42.644Z,84.13
2022-10-13T08:44:13.502Z,84.20
2022-10-13T08:45:42.757Z,84.30
2022-10-13T08:46:43.243Z,84.21
2022-10-13T08:47:42.527Z,84.14
2022-10-13T08:48:42.533Z,84.17
2022-10-13T08:49:42.494Z,84.26
2022-10-13T08:50:42.657Z,84.28
2022-10-13T08:51:42.525Z,84.20
2022-10-13T08:52:42.450Z,84.01
2022-10-13T08:53:42.571Z,84.02
2022-10-13T08:54:42.497Z,84.12
2022-10-13T08:55:42.493Z,84.17
2022-10-13T08:56:42.406Z,84.06
2022-10-13T08:57:42.690Z,83.94
2022-10-13T08:58:42.384Z,83.98
2022-10-13T08:59:42.344Z,84.03
2022-10-13T09:00:42.344Z,83.86
2022-10-13T09:01:42.471Z,83.74
2022-10-13T09:02:42.464Z,83.66
2022-10-13T09:03:42.403Z,83.70
2022-10-13T09:04:42.822Z,83.68
2022-10-13T09:05:48.772Z,83.57
2022-10-13T09:06:42.256Z,83.62
2022-10-13T09:07:42.312Z,83.24
2022-10-13T09:08:42.231Z,83.08
2022-10-13T09:09:42.210Z,83.07
2022-10-13T09:10:42.197Z,83.13
2022-10-13T09:11:42.189Z,83.15
2022-10-13T09:12:42.177Z,83.20
2022-10-13T09:13:42.176Z,82.67
2022-10-13T09:14:42.145Z,82.67
2022-10-13T09:15:42.133Z,82.64
2022-10-13T09:16:42.117Z,82.55
2022-10-13T09:17:42.105Z,82.49
2022-10-13T09:18:42.119Z,82.49
2022-10-13T09:19:42.077Z,82.55
2022-10-13T09:20:42.102Z,82.60
2022-10-13T09:21:42.071Z,82.62
2022-10-13T09:22:42.062Z,82.61
2022-10-13T09:23:42.208Z,82.61
2022-10-13T09:24:42.033Z,82.23
2022-10-13T09:25:42.004Z,82.03
2022-10-13T09:26:42.011Z,81.83
2022-10-13T09:27:41.997Z,81.94
2022-10-13T09:28:42.040Z,82.05
2022-10-13T09:29:41.960Z,82.08
2022-10-13T09:30:41.946Z,82.16
2022-10-13T09:31:41.923Z,81.78
2022-10-13T09:32:41.920Z,81.81
2022-10-13T09:33:41.912Z,81.91
2022-10-13T09:34:41.924Z,81.99
2022-10-13T09:35:41.907Z,81.67
2022-10-13T09:36:41.862Z,81.75
2022-10-13T09:37:41.875Z,81.96
2022-10-13T09:38:41.855Z,82.08
2022-10-13T09:39:41.844Z,82.05
2022-10-13T09:41:41.812Z,81.81
2022-10-13T09:42:41.786Z,81.71
2022-10-13T09:43:41.772Z,81.70
2022-10-13T09:44:41.772Z,81.51
2022-10-13T09:45:41.772Z,81.62
2022-10-13T09:46:41.727Z,81.65
2022-10-13T09:47:41.720Z,81.31
2022-10-13T09:48:41.704Z,81.41
2022-10-13T09:49:41.723Z,81.21
2022-10-13T09:50:41.677Z,80.27
2022-10-13T09:51:41.682Z,80.33
2022-10-13T09:52:41.655Z,80.33
2022-10-13T09:53:41.644Z,79.97
2022-10-13T09:54:41.632Z,80.00
2022-10-13T09:55:41.615Z,79.79
2022-10-13T09:56:41.608Z,79.35
2022-10-13T09:57:41.596Z,78.12
2022-10-13T09:58:41.607Z,76.96
2022-10-13T09:59:41.568Z,76.90
2022-10-13T10:00:41.562Z,76.45
2022-10-13T10:01:41.540Z,75.41
2022-10-13T10:02:41.544Z,75.72
2022-10-13T10:03:41.602Z,75.67
2022-10-13T10:04:41.505Z,75.74
2022-10-13T10:05:41.497Z,75.71
2022-10-13T10:06:41.475Z,75.94
2022-10-13T10:07:41.484Z,75.94
2022-10-13T10:09:01.406Z,75.72
2022-10-13T10:09:41.455Z,75.44
2022-10-13T10:10:41.438Z,75.57
2022-10-13T10:11:41.417Z,75.58
2022-10-13T10:12:41.418Z,75.60
2022-10-13T10:13:41.399Z,75.73
2022-10-13T10:14:41.359Z,75.75
2022-10-13T10:15:41.384Z,75.47
2022-10-13T10:16:41.337Z,75.49
2022-10-13T10:17:41.348Z,75.58
2022-10-13T10:18:41.322Z,75.51
2022-10-13T10:19:41.295Z,75.54
2022-10-13T10:20:41.312Z,75.58
2022-10-13T10:21:41.275Z,75.60
2022-10-13T10:22:41.279Z,75.51
2022-10-13T10:23:41.270Z,75.36
2022-10-13T10:24:41.252Z,75.16
2022-10-13T10:25:41.223Z,75.31
2022-10-13T10:26:41.224Z,74.87
2022-10-13T10:27:43.613Z,74.65
2022-10-13T10:28:41.231Z,74.77
2022-10-13T10:29:41.829Z,74.83
2022-10-13T10:30:41.172Z,74.95
2022-10-13T10:31:41.145Z,74.94
2022-10-13T10:32:41.141Z,74.98
2022-10-13T10:33:41.120Z,75.02
2022-10-13T10:34:41.124Z,75.21
2022-10-13T10:35:41.078Z,75.14
2022-10-13T10:36:41.081Z,74.91
2022-10-13T10:37:41.048Z,74.99
2022-10-13T10:38:41.037Z,75.10
2022-10-13T10:39:41.025Z,75.14
2022-10-13T10:40:41.050Z,75.33
2022-10-13T10:41:41.052Z,75.32
2022-10-13T10:42:40.976Z,75.36
2022-10-13T10:43:40.994Z,75.11
2022-10-13T10:44:41.078Z,75.09
2022-10-13T10:45:40.940Z,74.76
2022-10-13T10:46:40.935Z,75.00
2022-10-13T10:47:40.914Z,75.04
2022-10-13T10:48:40.900Z,75.12
2022-10-13T10:49:40.900Z,75.08
2022-10-13T10:50:40.885Z,74.78
2022-10-13T10:51:40.935Z,74.08
2022-10-13T10:52:40.839Z,74.02
2022-10-13T10:53:40.855Z,74.14
2022-10-13T10:54:43.896Z,73.85
2022-10-13T10:55:40.824Z,74.06
2022-10-13T10:56:40.793Z,73.68
2022-10-13T10:57:40.774Z,73.66
2022-10-13T10:58:40.770Z,73.69
2022-10-13T10:59:40.789Z,73.48
2022-10-13T11:00:40.736Z,73.35
2022-10-13T11:01:40.933Z,73.61
2022-10-13T11:02:40.750Z,73.68
2022-10-13T11:03:40.699Z,73.69
2022-10-13T11:04:40.683Z,73.92
2022-10-13T11:05:40.672Z,73.90
2022-10-13T11:06:40.661Z,73.19
2022-10-13T11:07:40.641Z,72.72
2022-10-13T11:08:41.054Z,72.76
2022-10-13T11:09:40.617Z,73.12
2022-10-13T11:10:40.612Z,73.30
2022-10-13T11:11:40.599Z,73.26
2022-10-13T11:12:40.569Z,73.41
2022-10-13T11:13:40.565Z,73.47
2022-10-13T11:14:40.548Z,73.54
2022-10-13T11:15:40.535Z,72.71
2022-10-13T11:16:40.525Z,72.41
2022-10-13T11:17:40.498Z,72.56
2022-10-13T11:18:40.490Z,72.58
2022-10-13T11:19:40.528Z,72.29
2022-10-13T11:20:40.531Z,72.54
2022-10-13T11:21:40.484Z,72.20
2022-10-13T11:22:40.442Z,72.08
2022-10-13T11:23:40.471Z,72.22
2022-10-13T11:24:40.399Z,72.24
2022-10-13T11:25:40.511Z,72.19
2022-10-13T11:26:40.377Z,71.47
2022-10-13T11:27:40.370Z,72.16
2022-10-13T11:28:40.991Z,72.14
2022-10-13T11:29:40.334Z,71.25
2022-10-13T11:30:40.324Z,71.51
2022-10-13T11:31:40.309Z,71.69
2022-10-13T11:32:40.304Z,71.73
2022-10-13T11:33:40.301Z,71.73
2022-10-13T11:34:40.298Z,71.76
2022-10-13T11:35:40.268Z,71.97
2022-10-13T11:36:40.233Z,71.95
2022-10-13T11:37:40.246Z,71.63
2022-10-13T11:38:40.226Z,71.60
2022-10-13T11:39:40.205Z,71.33
2022-10-13T11:40:40.181Z,71.38
2022-10-13T11:41:40.164Z,71.25
2022-10-13T11:42:40.157Z,71.31
2022-10-13T11:43:40.152Z,71.35
2022-10-13T11:44:40.135Z,71.30
2022-10-13T11:45:40.896Z,71.32
2022-10-13T11:46:40.106Z,71.24
2022-10-13T11:47:40.125Z,70.96
2022-10-13T11:48:40.085Z,70.91
2022-10-13T11:49:41.556Z,70.88
2022-10-13T11:50:44.618Z,70.53
2022-10-13T11:51:41.297Z,70.63
2022-10-13T11:52:40.056Z,70.53
2022-10-13T11:53:40.032Z,70.51
2022-10-13T11:54:40.005Z,69.99
2022-10-13T11:55:41.774Z,70.05
2022-10-13T11:56:40.312Z,69.28
2022-10-13T11:57:39.964Z,69.30
2022-10-13T11:58:39.955Z,69.10
2022-10-13T11:59:39.958Z,69.28
2022-10-13T12:00:40.051Z,69.35
2022-10-13T12:01:39.905Z,69.31
2022-10-13T12:02:40.960Z,69.03
2022-10-13T12:03:39.885Z,69.27
2022-10-13T12:04:45.545Z,69.42
2022-10-13T12:05:39.860Z,69.61
2022-10-13T12:06:39.882Z,69.75
2022-10-13T12:07:39.847Z,69.86
2022-10-13T12:08:39.819Z,70.16
2022-10-13T12:09:39.806Z,70.25
2022-10-13T12:10:39.804Z,70.06
2022-10-13T12:11:39.781Z,69.98
2022-10-13T12:12:39.777Z,69.85
2022-10-13T12:13:39.779Z,69.41
2022-10-13T12:14:39.867Z,69.34
2022-10-13T12:15:39.719Z,69.25
2022-10-13T12:16:39.718Z,69.46
2022-10-13T12:17:39.697Z,69.74
2022-10-13T12:18:39.693Z,70.01
2022-10-13T12:19:39.676Z,70.07
2022-10-13T12:20:39.656Z,70.07
2022-10-13T12:21:39.642Z,69.65
2022-10-13T12:22:40.416Z,69.22
2022-10-13T12:23:39.643Z,69.49
2022-10-13T12:24:39.597Z,69.33
2022-10-13T12:25:39.585Z,69.23
2022-10-13T12:26:40.243Z,69.33
2022-10-13T12:27:39.559Z,68.94
2022-10-13T12:28:39.595Z,69.11
2022-10-13T12:29:39.533Z,69.28
2022-10-13T12:30:39.590Z,69.49
2022-10-13T12:31:39.522Z,69.66
2022-10-13T12:32:39.506Z,69.68
2022-10-13T12:33:39.493Z,69.79
2022-10-13T12:34:39.470Z,69.83
2022-10-13T12:35:39.706Z,69.99
2022-10-13T12:36:39.448Z,70.09
2022-10-13T12:37:40.058Z,70.16
2022-10-13T12:38:39.463Z,70.21
2022-10-13T12:39:39.415Z,70.23
2022-10-13T12:40:39.614Z,70.23
2022-10-13T12:41:39.373Z,70.22
2022-10-13T12:42:40.360Z,70.37
2022-10-13T12:43:39.399Z,69.86
2022-10-13T12:44:39.368Z,69.36
2022-10-13T12:45:39.337Z,69.47
2022-10-13T12:46:39.323Z,69.64
2022-10-13T12:47:39.305Z,69.25
2022-10-13T12:48:39.290Z,69.40
2022-10-13T12:49:39.293Z,69.70
2022-10-13T12:50:39.276Z,69.95
2022-10-13T12:51:39.292Z,70.14
2022-10-13T12:52:39.234Z,70.44
2022-10-13T12:53:39.961Z,70.55
2022-10-13T12:54:39.219Z,70.59
2022-10-13T12:55:39.205Z,70.75